Time;durP1;ratioP1;P1;durP2;ratioP2;P2;SDS_P1;SDS_P2;PMS_P1;PMS_P2;Temp;Humidity;BMP_temperature;BMP_pressure;BME280_temperature;BME280_humidity;BME280_pressure;Samples;Min_cycle;Max_cycle;Signal;HPM_P1;HPM_P2
2024/01/02 00:01:13;;;;;;;18.58;14.50;;;5.70;99.90;;;;;;5124173;27;20038;-83
2024/01/02 00:03:38;;;;;;;20.65;14.40;;;5.70;99.90;;;;;;5140243;27;20436;-82
2024/01/02 00:06:04;;;;;;;18.92;17.08;;;5.70;99.90;;;;;;5126533;27;20431;-83
2024/01/02 00:08:30;;;;;;;17.05;15.43;;;5.70;99.90;;;;;;5130723;27;20061;-82
2024/01/02 00:10:55;;;;;;;17.73;14.50;;;5.70;99.90;;;;;;5122638;27;20074;-82
2024/01/02 00:13:21;;;;;;;17.58;15.63;;;5.70;99.90;;;;;;5109544;27;20066;-83
2024/01/02 00:15:47;;;;;;;20.58;16.70;;;5.70;99.90;;;;;;5130960;27;20038;-83
2024/01/02 00:18:12;;;;;;;22.27;15.85;;;5.80;99.90;;;;;;5109356;27;20034;-83
2024/01/02 00:20:38;;;;;;;19.08;15.10;;;5.80;99.90;;;;;;5128276;27;20117;-82
2024/01/02 00:23:03;;;;;;;16.13;13.80;;;5.70;99.90;;;;;;5101612;27;20774;-82
2024/01/02 00:25:29;;;;;;;17.58;15.30;;;5.70;99.90;;;;;;5130779;27;20097;-82
2024/01/02 00:27:55;;;;;;;18.73;16.92;;;5.80;99.90;;;;;;5144829;27;20129;-82
2024/01/02 00:30:20;;;;;;;17.70;13.32;;;5.80;99.90;;;;;;5126893;27;20509;-83
2024/01/02 00:32:47;;;;;;;22.50;14.93;;;5.80;99.90;;;;;;5132048;27;20604;-82
2024/01/02 00:35:13;;;;;;;16.80;13.98;;;5.80;99.90;;;;;;5108235;27;20391;-83
2024/01/02 00:37:38;;;;;;;15.32;14.00;;;5.80;99.90;;;;;;5122325;27;20039;-83
2024/01/02 00:40:05;;;;;;;17.63;15.88;;;5.80;99.90;;;;;;5116657;27;20039;-83
2024/01/02 00:42:30;;;;;;;16.85;14.00;;;5.80;99.90;;;;;;5121358;27;20058;-83
2024/01/02 00:44:56;;;;;;;18.15;13.52;;;5.80;99.90;;;;;;5128718;27;20151;-82
2024/01/02 00:47:21;;;;;;;15.57;13.07;;;5.90;99.90;;;;;;5125240;27;20046;-83
2024/01/02 00:49:50;;;;;;;16.60;14.68;;;5.90;99.90;;;;;;5134551;27;20467;-82
2024/01/02 00:52:16;;;;;;;14.82;13.52;;;5.90;99.90;;;;;;5134794;27;20117;-83
2024/01/02 00:54:41;;;;;;;16.42;13.23;;;5.90;99.90;;;;;;5119597;27;20122;-82
2024/01/02 00:57:07;;;;;;;14.30;12.80;;;5.90;99.90;;;;;;5138069;27;20039;-83
2024/01/02 00:59:33;;;;;;;15.15;13.68;;;6.00;99.90;;;;;;5120267;27;20034;-84
2024/01/02 01:01:58;;;;;;;15.00;13.25;;;6.10;99.90;;;;;;5128583;27;20521;-83
2024/01/02 01:04:24;;;;;;;17.02;14.48;;;6.10;99.90;;;;;;5137833;27;20035;-83
2024/01/02 01:06:50;;;;;;;19.10;13.85;;;6.10;99.90;;;;;;5149620;27;20491;-83
2024/01/02 01:09:15;;;;;;;17.58;14.05;;;6.10;99.90;;;;;;5113335;27;20049;-83
2024/01/02 01:11:41;;;;;;;15.15;13.70;;;6.10;99.90;;;;;;5105788;27;20440;-84
2024/01/02 01:14:06;;;;;;;16.63;14.40;;;6.10;99.90;;;;;;5130773;27;20486;-83
2024/01/02 01:16:32;;;;;;;21.27;14.80;;;6.10;99.90;;;;;;5130949;27;20035;-84
2024/01/02 01:18:58;;;;;;;31.83;29.08;;;6.10;99.90;;;;;;5152941;27;20529;-83
2024/01/02 01:21:23;;;;;;;18.65;14.00;;;6.00;99.90;;;;;;5114606;27;20042;-83
2024/01/02 01:23:50;;;;;;;33.05;30.63;;;6.10;99.90;;;;;;5122772;27;20053;-83
2024/01/02 01:26:16;;;;;;;16.83;14.80;;;6.10;99.90;;;;;;5116387;27;20145;-83
2024/01/02 01:28:42;;;;;;;17.92;14.65;;;6.10;99.90;;;;;;5120209;27;20038;-82
2024/01/02 01:31:08;;;;;;;18.17;15.77;;;6.10;99.90;;;;;;5130296;27;20091;-83
2024/01/02 01:33:33;;;;;;;16.27;14.75;;;6.10;99.90;;;;;;5148437;27;20030;-83
2024/01/02 01:35:59;;;;;;;15.40;13.93;;;6.10;99.90;;;;;;5131468;27;20286;-83
2024/01/02 01:38:24;;;;;;;18.70;15.90;;;6.20;99.90;;;;;;5127944;27;20035;-83
2024/01/02 01:40:50;;;;;;;17.17;15.30;;;6.20;99.90;;;;;;5112406;28;20122;-82
2024/01/02 01:43:16;;;;;;;29.45;18.08;;;6.20;99.90;;;;;;5117221;27;20054;-83
2024/01/02 01:45:41;;;;;;;17.13;15.38;;;6.30;99.90;;;;;;5117247;27;20051;-83
2024/01/02 01:48:09;;;;;;;17.63;15.95;;;6.30;99.90;;;;;;5125207;27;20080;-83
2024/01/02 01:50:36;;;;;;;18.60;16.85;;;6.30;99.90;;;;;;5132894;27;20035;-83
2024/01/02 01:53:02;;;;;;;26.23;24.40;;;6.30;99.90;;;;;;5116272;27;20819;-83
2024/01/02 01:55:28;;;;;;;17.73;15.90;;;6.30;99.90;;;;;;5117131;27;20039;-82
2024/01/02 01:57:55;;;;;;;19.33;17.75;;;6.30;99.90;;;;;;5126048;27;20046;-83
2024/01/02 02:00:21;;;;;;;17.20;15.40;;;6.30;99.90;;;;;;5105756;27;20494;-83
2024/01/02 02:02:47;;;;;;;18.75;15.93;;;6.30;99.90;;;;;;5149624;27;20027;-83
2024/01/02 02:05:12;;;;;;;17.80;15.82;;;6.30;99.90;;;;;;5116570;27;20049;-84
2024/01/02 02:07:41;;;;;;;16.83;15.15;;;6.30;99.90;;;;;;5130921;27;20039;-83
2024/01/02 02:10:08;;;;;;;17.10;15.40;;;6.30;99.90;;;;;;5116655;27;20438;-83
2024/01/02 02:12:35;;;;;;;15.18;13.65;;;6.40;99.90;;;;;;5108561;27;20145;-83
2024/01/02 02:15:01;;;;;;;18.75;16.83;;;6.40;99.90;;;;;;5138758;27;20030;-83
2024/01/02 02:17:30;;;;;;;18.33;16.50;;;6.40;99.90;;;;;;5119328;27;20035;-83
2024/01/02 02:19:56;;;;;;;17.83;16.50;;;6.50;99.90;;;;;;5138051;27;20053;-84
2024/01/02 02:22:32;;;;;;;20.00;16.42;;;6.50;99.90;;;;;;5130544;27;20068;-83
2024/01/02 02:24:58;;;;;;;17.77;16.02;;;6.50;99.90;;;;;;5146650;27;20035;-83
2024/01/02 02:27:26;;;;;;;23.90;18.42;;;6.50;99.90;;;;;;5120970;27;20042;-83
2024/01/02 02:29:53;;;;;;;17.40;15.52;;;6.50;99.90;;;;;;5126485;27;20043;-84
2024/01/02 02:32:19;;;;;;;23.13;17.65;;;6.50;99.90;;;;;;5128362;27;20121;-83
2024/01/02 02:34:45;;;;;;;20.08;16.23;;;6.50;99.90;;;;;;5122270;27;20038;-84
2024/01/02 02:37:11;;;;;;;16.63;15.27;;;6.60;99.90;;;;;;5122425;27;20030;-83
2024/01/02 02:39:36;;;;;;;17.73;16.20;;;6.60;99.90;;;;;;5105496;27;20077;-84
2024/01/02 02:42:02;;;;;;;19.88;17.77;;;6.60;99.90;;;;;;5126776;27;20042;-83
2024/01/02 02:44:28;;;;;;;19.83;17.90;;;6.60;99.90;;;;;;5109998;27;20088;-83
2024/01/02 02:46:54;;;;;;;20.15;18.23;;;6.60;99.90;;;;;;5113973;27;20047;-84
2024/01/02 02:49:19;;;;;;;19.92;17.40;;;6.60;99.90;;;;;;5116812;27;20053;-83
2024/01/02 02:51:45;;;;;;;21.70;19.00;;;6.60;99.90;;;;;;5126962;27;20142;-84
2024/01/02 02:54:11;;;;;;;20.48;18.48;;;6.60;99.90;;;;;;5103390;27;20104;-84
2024/01/02 02:56:37;;;;;;;19.25;17.35;;;6.60;99.90;;;;;;5116334;27;20530;-84
2024/01/02 02:59:03;;;;;;;20.10;18.20;;;6.60;99.90;;;;;;5150106;27;20042;-84
2024/01/02 03:01:28;;;;;;;20.02;17.15;;;6.60;99.90;;;;;;5151652;27;20050;-84
2024/01/02 03:03:56;;;;;;;19.23;17.48;;;6.60;99.90;;;;;;5146108;27;20455;-84
2024/01/02 03:06:22;;;;;;;18.88;17.25;;;6.60;99.90;;;;;;5114933;27;20372;-85
2024/01/02 03:08:47;;;;;;;21.77;20.08;;;6.60;99.90;;;;;;5150925;27;20095;-84
2024/01/02 03:11:13;;;;;;;18.33;16.73;;;6.60;99.90;;;;;;5130016;27;20023;-84
2024/01/02 03:13:39;;;;;;;27.95;25.77;;;6.70;99.90;;;;;;5150357;27;20042;-84
2024/01/02 03:16:09;;;;;;;21.30;19.10;;;6.70;99.90;;;;;;5107349;27;20109;-83
2024/01/02 03:18:35;;;;;;;19.85;17.23;;;6.70;99.90;;;;;;5115081;27;20038;-83
2024/01/02 03:21:01;;;;;;;20.05;18.15;;;6.70;99.90;;;;;;5129918;27;20068;-84
2024/01/02 03:23:27;;;;;;;18.67;16.73;;;6.60;99.90;;;;;;5128490;27;20434;-84
2024/01/02 03:25:52;;;;;;;20.02;18.17;;;6.60;99.90;;;;;;5143793;27;20506;-83
2024/01/02 03:28:18;;;;;;;19.73;17.85;;;6.60;99.90;;;;;;5103985;27;20039;-86
2024/01/02 03:30:44;;;;;;;21.73;19.88;;;6.60;99.90;;;;;;5123511;27;20500;-84
2024/01/02 03:33:09;;;;;;;19.85;18.15;;;6.60;99.90;;;;;;5144287;27;20107;-84
2024/01/02 03:35:35;;;;;;;17.45;15.98;;;6.60;99.90;;;;;;5124876;27;20049;-83
2024/01/02 03:38:01;;;;;;;18.58;16.98;;;6.70;99.90;;;;;;5117656;27;20103;-83
2024/01/02 03:40:27;;;;;;;20.73;18.90;;;6.60;99.90;;;;;;5124633;27;20047;-85
2024/01/02 03:42:52;;;;;;;19.25;17.25;;;6.60;99.90;;;;;;5130429;27;20129;-84
2024/01/02 03:45:18;;;;;;;17.65;15.93;;;6.60;99.90;;;;;;5121863;27;20035;-84
2024/01/02 03:47:44;;;;;;;18.25;16.75;;;6.60;99.90;;;;;;5135306;27;20561;-84
2024/01/02 03:50:09;;;;;;;17.45;15.80;;;6.60;99.90;;;;;;5130106;27;20070;-83
2024/01/02 03:52:35;;;;;;;17.67;16.15;;;6.60;99.90;;;;;;5130515;27;20091;-84
2024/01/02 03:55:01;;;;;;;16.60;15.15;;;6.60;99.90;;;;;;5121399;27;20688;-83
2024/01/02 03:57:27;;;;;;;18.50;16.77;;;6.60;99.90;;;;;;5112298;27;20070;-85
2024/01/02 03:59:53;;;;;;;17.38;15.73;;;6.60;99.90;;;;;;5103056;27;20129;-83
2024/01/02 04:02:19;;;;;;;19.30;17.73;;;6.60;99.90;;;;;;5113311;27;20466;-85
2024/01/02 04:04:45;;;;;;;17.65;16.30;;;6.60;99.90;;;;;;5113122;27;20125;-84
2024/01/02 04:07:10;;;;;;;17.73;16.17;;;6.60;99.90;;;;;;5127638;27;20046;-84
2024/01/02 04:09:36;;;;;;;17.73;16.33;;;6.60;99.90;;;;;;5101294;27;20038;-84
2024/01/02 04:12:02;;;;;;;16.88;15.35;;;6.60;99.90;;;;;;5146689;27;20050;-85
2024/01/02 04:14:28;;;;;;;17.30;15.65;;;6.60;99.90;;;;;;5129208;27;20395;-84
2024/01/02 04:16:53;;;;;;;18.52;16.85;;;6.60;99.90;;;;;;5105233;27;20070;-85
2024/01/02 04:19:21;;;;;;;19.17;17.30;;;6.60;99.90;;;;;;5096483;27;20042;-85
2024/01/02 04:21:47;;;;;;;18.35;16.85;;;6.60;99.90;;;;;;5098577;28;20035;-84
2024/01/02 04:24:15;;;;;;;19.00;17.17;;;6.60;99.90;;;;;;5104953;27;20069;-84
2024/01/02 04:26:40;;;;;;;19.65;17.85;;;6.60;99.90;;;;;;5130292;27;20101;-85
2024/01/02 04:29:06;;;;;;;19.52;17.83;;;6.60;99.90;;;;;;5104396;27;20047;-85
2024/01/02 04:31:32;;;;;;;18.92;17.13;;;6.60;99.90;;;;;;5144284;27;20038;-85
2024/01/02 04:33:57;;;;;;;18.42;16.65;;;6.60;99.90;;;;;;5109042;27;20080;-85
2024/01/02 04:36:25;;;;;;;18.38;16.48;;;6.60;99.90;;;;;;5122019;27;20035;-85
2024/01/02 04:38:52;;;;;;;18.40;16.90;;;6.60;99.90;;;;;;5122685;27;20643;-86
2024/01/02 04:41:19;;;;;;;18.60;17.20;;;6.60;99.90;;;;;;5139950;27;20047;-84
2024/01/02 04:43:45;;;;;;;17.95;16.35;;;6.60;99.90;;;;;;5120448;27;20050;-84
2024/01/02 04:46:11;;;;;;;20.75;18.90;;;6.60;99.90;;;;;;5141166;27;20047;-84
2024/01/02 04:48:36;;;;;;;14.88;13.82;;;6.60;99.90;;;;;;5140699;27;20454;-83
2024/01/02 04:51:02;;;;;;;16.45;15.05;;;6.60;99.90;;;;;;5095042;28;20031;-84
2024/01/02 04:53:28;;;;;;;15.57;14.40;;;6.60;99.90;;;;;;5108193;27;20043;-85
2024/01/02 04:55:54;;;;;;;17.00;15.50;;;6.60;99.90;;;;;;5150100;27;20039;-84
2024/01/02 04:58:20;;;;;;;16.65;15.25;;;6.60;99.90;;;;;;5138445;27;20081;-84
2024/01/02 05:00:45;;;;;;;25.70;24.05;;;6.60;99.90;;;;;;5125046;27;20038;-85
2024/01/02 05:03:11;;;;;;;24.88;23.08;;;6.60;99.90;;;;;;5107507;27;20087;-84
2024/01/02 05:05:37;;;;;;;27.90;26.30;;;6.60;99.90;;;;;;5111881;27;20041;-84
2024/01/02 05:08:04;;;;;;;23.23;21.83;;;6.60;99.90;;;;;;5102948;27;20520;-83
2024/01/02 05:10:30;;;;;;;24.52;23.02;;;6.70;99.90;;;;;;5105355;27;20046;-83
2024/01/02 05:12:56;;;;;;;23.65;22.02;;;6.60;99.90;;;;;;5122274;27;20508;-84
2024/01/02 05:15:22;;;;;;;34.20;32.03;;;6.60;99.90;;;;;;5123206;27;20039;-84
2024/01/02 05:17:47;;;;;;;23.95;22.33;;;6.70;99.90;;;;;;5112497;27;20043;-83
2024/01/02 05:20:13;;;;;;;26.55;24.83;;;6.70;99.90;;;;;;5127115;27;20088;-84
2024/01/02 05:22:39;;;;;;;23.40;22.00;;;6.70;99.90;;;;;;5111632;27;20089;-84
2024/01/02 05:25:06;;;;;;;24.45;23.05;;;6.60;99.90;;;;;;5143552;27;20038;-85
2024/01/02 05:27:32;;;;;;;21.98;20.50;;;6.70;99.90;;;;;;5125406;27;20410;-84
2024/01/02 05:29:58;;;;;;;20.08;18.60;;;6.70;99.90;;;;;;5100807;27;20050;-85
2024/01/02 05:32:23;;;;;;;16.65;15.50;;;6.70;99.90;;;;;;5131749;27;20034;-84
2024/01/02 05:34:49;;;;;;;15.18;13.98;;;6.70;99.90;;;;;;5139575;27;20462;-84
2024/01/02 05:37:16;;;;;;;15.32;14.15;;;6.70;99.90;;;;;;5133793;27;20030;-83
2024/01/02 05:39:42;;;;;;;14.77;13.75;;;6.70;99.90;;;;;;5134545;27;20035;-83
2024/01/02 05:42:08;;;;;;;15.13;13.93;;;6.70;99.90;;;;;;5126903;27;20035;-85
2024/01/02 05:44:33;;;;;;;14.20;13.20;;;6.70;99.90;;;;;;5124414;27;20141;-84
2024/01/02 05:46:59;;;;;;;16.05;14.52;;;6.70;99.90;;;;;;5104564;27;20157;-83
2024/01/02 05:49:25;;;;;;;14.68;13.75;;;6.70;99.90;;;;;;5123359;27;20474;-84
2024/01/02 05:51:50;;;;;;;13.95;12.95;;;6.70;99.90;;;;;;5121194;27;20698;-83
2024/01/02 05:54:16;;;;;;;14.30;13.20;;;6.70;99.90;;;;;;5141123;27;20022;-82
2024/01/02 05:56:42;;;;;;;14.57;13.43;;;6.70;99.90;;;;;;5126703;27;20589;-83
2024/01/02 05:59:08;;;;;;;14.15;13.05;;;6.70;99.90;;;;;;5110630;27;20047;-82
2024/01/02 06:01:34;;;;;;;13.98;13.00;;;6.70;99.90;;;;;;5123898;27;20038;-83
2024/01/02 06:03:59;;;;;;;14.85;13.68;;;6.70;99.90;;;;;;5104232;27;20556;-83
2024/01/02 06:06:25;;;;;;;15.00;14.00;;;6.70;99.90;;;;;;5125950;27;20121;-83
2024/01/02 06:08:51;;;;;;;13.68;12.68;;;6.70;99.90;;;;;;5116426;27;20038;-83
2024/01/02 06:11:16;;;;;;;14.00;13.02;;;6.70;99.90;;;;;;5133247;27;20091;-85
2024/01/02 06:13:42;;;;;;;14.27;13.27;;;6.70;99.90;;;;;;5130633;27;20762;-83
2024/01/02 06:16:10;;;;;;;13.48;12.57;;;6.70;99.90;;;;;;5106610;27;20039;-82
2024/01/02 06:18:37;;;;;;;13.52;12.63;;;6.60;99.90;;;;;;5126265;27;20053;-83
2024/01/02 06:21:04;;;;;;;13.27;12.38;;;6.70;99.90;;;;;;5113131;27;20037;-84
2024/01/02 06:23:33;;;;;;;12.90;12.10;;;6.70;99.90;;;;;;5142509;27;20058;-83
2024/01/02 06:25:59;;;;;;;13.13;12.27;;;6.70;99.90;;;;;;5151054;27;20042;-84
2024/01/02 06:28:25;;;;;;;13.82;12.93;;;6.70;99.90;;;;;;5133005;27;20043;-85
2024/01/02 06:30:51;;;;;;;13.13;12.32;;;6.60;99.90;;;;;;5118261;27;20403;-83
2024/01/02 06:33:17;;;;;;;14.57;13.68;;;6.70;99.90;;;;;;5125519;27;20142;-84
2024/01/02 06:35:43;;;;;;;13.85;13.05;;;6.70;99.90;;;;;;5129486;27;20452;-83
2024/01/02 06:38:09;;;;;;;13.50;12.60;;;6.70;99.90;;;;;;5133321;27;20088;-84
2024/01/02 06:40:37;;;;;;;13.70;12.80;;;6.70;99.90;;;;;;5132437;27;20043;-83
2024/01/02 06:43:04;;;;;;;14.43;13.43;;;6.70;99.90;;;;;;5133282;27;20035;-83
2024/01/02 06:45:31;;;;;;;13.40;12.60;;;6.70;99.90;;;;;;5113554;27;20042;-83
2024/01/02 06:47:57;;;;;;;13.75;12.90;;;6.70;99.90;;;;;;5118150;27;20035;-83
2024/01/02 06:50:22;;;;;;;13.73;12.82;;;6.70;99.90;;;;;;5113552;27;20087;-83
2024/01/02 06:52:48;;;;;;;13.65;12.75;;;6.70;99.90;;;;;;5123972;27;20031;-82
2024/01/02 06:55:14;;;;;;;14.57;13.57;;;6.70;99.90;;;;;;5109404;27;20781;-84
2024/01/02 06:57:39;;;;;;;14.00;13.00;;;6.70;99.90;;;;;;5132470;27;20092;-83
2024/01/02 07:00:06;;;;;;;13.80;12.90;;;6.70;99.90;;;;;;5114261;27;20043;-83
2024/01/02 07:02:33;;;;;;;14.13;13.13;;;6.80;99.90;;;;;;5150793;27;20070;-82
2024/01/02 07:04:59;;;;;;;13.65;12.65;;;6.80;99.90;;;;;;5121929;27;20084;-84
2024/01/02 07:07:24;;;;;;;13.80;12.80;;;6.80;99.90;;;;;;5124349;27;20043;-83
2024/01/02 07:09:50;;;;;;;13.90;13.00;;;6.80;99.90;;;;;;5117393;27;20046;-84
2024/01/02 07:12:16;;;;;;;13.65;12.85;;;6.80;99.90;;;;;;5106608;27;20042;-84
2024/01/02 07:14:41;;;;;;;14.02;13.13;;;6.80;99.90;;;;;;5111726;27;20406;-84
2024/01/02 07:17:07;;;;;;;13.43;12.52;;;6.80;99.90;;;;;;5106729;27;20042;-83
2024/01/02 07:19:33;;;;;;;14.05;13.15;;;6.80;99.90;;;;;;5118387;27;20042;-84
2024/01/02 07:21:59;;;;;;;13.55;12.65;;;6.80;99.90;;;;;;5115674;27;20046;-84
2024/01/02 07:24:25;;;;;;;13.85;12.95;;;6.90;99.90;;;;;;5114036;27;20121;-84
2024/01/02 07:26:50;;;;;;;15.10;14.20;;;6.90;99.90;;;;;;5122222;27;20082;-83
2024/01/02 07:29:16;;;;;;;20.60;19.38;;;6.90;99.90;;;;;;5114849;27;20562;-84
2024/01/02 07:31:42;;;;;;;14.38;13.40;;;7.00;99.90;;;;;;5132062;27;20038;-83
2024/01/02 07:34:08;;;;;;;14.20;13.25;;;7.00;99.90;;;;;;5116699;27;20035;-84
2024/01/02 07:36:33;;;;;;;15.15;14.15;;;7.00;99.90;;;;;;5120637;27;20122;-84
2024/01/02 07:38:59;;;;;;;15.85;14.65;;;7.00;99.90;;;;;;5124407;27;20789;-84
2024/01/02 07:41:25;;;;;;;15.38;14.40;;;7.00;99.90;;;;;;5131144;27;20121;-83
2024/01/02 07:43:50;;;;;;;15.20;14.00;;;7.10;99.90;;;;;;5131334;27;20039;-84
2024/01/02 07:46:16;;;;;;;16.42;15.32;;;7.10;99.90;;;;;;5123929;27;20046;-84
2024/01/02 07:48:42;;;;;;;16.67;15.68;;;7.10;99.90;;;;;;5123779;27;20061;-84
2024/01/02 07:51:07;;;;;;;16.20;15.10;;;7.20;99.90;;;;;;5099680;27;20027;-84
2024/01/02 07:53:33;;;;;;;24.83;23.27;;;7.30;99.90;;;;;;5110498;27;20035;-85
2024/01/02 07:56:01;;;;;;;16.75;15.65;;;7.40;99.90;;;;;;5127595;27;20043;-84
2024/01/02 07:58:27;;;;;;;16.70;15.38;;;7.40;99.90;;;;;;5130346;27;20045;-85
2024/01/02 08:00:52;;;;;;;16.27;15.07;;;7.50;99.90;;;;;;5144857;27;20031;-85
2024/01/02 08:03:18;;;;;;;16.15;15.00;;;7.50;99.90;;;;;;5108003;27;20482;-85
2024/01/02 08:05:44;;;;;;;15.63;14.52;;;7.50;99.90;;;;;;5110254;27;20092;-85
2024/01/02 08:08:09;;;;;;;16.60;15.20;;;7.60;99.90;;;;;;5141763;27;20102;-85
2024/01/02 08:10:35;;;;;;;16.10;14.90;;;7.70;99.90;;;;;;5106210;27;20044;-85
2024/01/02 08:13:00;;;;;;;17.17;15.98;;;7.70;99.90;;;;;;5113736;27;20060;-84
2024/01/02 08:15:26;;;;;;;200.02;57.47;;;7.80;99.90;;;;;;5123723;27;20035;-83
2024/01/02 08:17:52;;;;;;;18.80;17.08;;;7.90;99.90;;;;;;5122204;27;20482;-85
2024/01/02 08:20:18;;;;;;;18.40;16.70;;;8.00;99.90;;;;;;5149717;27;20043;-84
2024/01/02 08:22:43;;;;;;;18.00;16.35;;;8.10;99.90;;;;;;5115863;27;20364;-85
2024/01/02 08:25:09;;;;;;;20.50;18.65;;;8.20;99.90;;;;;;5111142;27;20075;-85
2024/01/02 08:27:35;;;;;;;20.63;18.10;;;8.30;99.90;;;;;;5109394;27;20031;-85
2024/01/02 08:30:03;;;;;;;21.50;18.92;;;8.50;99.90;;;;;;5119422;28;20027;-85
2024/01/02 08:32:29;;;;;;;23.85;18.75;;;8.60;99.90;;;;;;5124329;27;20034;-84
2024/01/02 08:34:54;;;;;;;21.38;19.02;;;8.70;99.90;;;;;;5127686;27;20083;-84
2024/01/02 08:37:20;;;;;;;25.35;23.33;;;8.80;99.90;;;;;;5130718;27;20045;-84
2024/01/02 08:39:45;;;;;;;18.88;17.08;;;9.00;99.90;;;;;;5134743;27;20049;-84
2024/01/02 08:42:11;;;;;;;20.48;17.38;;;9.10;99.90;;;;;;5112655;27;20045;-84
2024/01/02 08:44:37;;;;;;;27.65;16.70;;;9.20;99.90;;;;;;5118253;28;20043;-84
2024/01/02 08:47:03;;;;;;;22.25;17.05;;;9.30;99.90;;;;;;5121996;27;20034;-84
2024/01/02 08:49:29;;;;;;;18.08;15.20;;;9.40;99.90;;;;;;5120947;27;20111;-84
2024/01/02 08:51:54;;;;;;;22.40;15.38;;;9.50;99.90;;;;;;5120836;27;20033;-83
2024/01/02 08:54:20;;;;;;;20.25;14.82;;;9.60;99.90;;;;;;5116933;27;20485;-84
2024/01/02 08:56:46;;;;;;;22.52;13.52;;;9.60;99.90;;;;;;5153572;27;20039;-84
2024/01/02 08:59:11;;;;;;;15.85;14.02;;;9.70;99.90;;;;;;5099671;27;20039;-84
2024/01/02 09:01:37;;;;;;;19.40;13.95;;;9.70;99.90;;;;;;5146579;27;20039;-84
2024/01/02 09:04:04;;;;;;;20.33;16.05;;;9.70;99.90;;;;;;5116097;27;20031;-85
2024/01/02 09:06:30;;;;;;;22.77;15.73;;;9.70;99.90;;;;;;5119816;27;20047;-84
2024/01/02 09:08:58;;;;;;;21.42;15.40;;;9.70;99.90;;;;;;5099966;27;20038;-85
2024/01/02 09:11:24;;;;;;;18.13;13.85;;;9.70;99.90;;;;;;5119000;27;20031;-85
2024/01/02 09:13:50;;;;;;;20.52;14.75;;;9.80;99.90;;;;;;5101795;27;20467;-84
2024/01/02 09:16:17;;;;;;;19.63;13.23;;;9.80;99.90;;;;;;5148461;27;20403;-84
2024/01/02 09:18:42;;;;;;;22.70;13.43;;;9.80;99.90;;;;;;5114398;27;20034;-84
2024/01/02 09:21:08;;;;;;;19.67;13.30;;;9.90;99.90;;;;;;5130360;27;20147;-84
2024/01/02 09:23:34;;;;;;;235.13;127.70;;;9.90;99.90;;;;;;5141413;27;20724;-84
2024/01/02 09:26:01;;;;;;;23.15;13.40;;;10.00;99.90;;;;;;5126458;27;20483;-84
2024/01/02 09:28:30;;;;;;;21.00;13.55;;;10.00;99.90;;;;;;5111507;27;20046;-85
2024/01/02 09:30:56;;;;;;;20.58;13.90;;;10.00;99.90;;;;;;5128060;27;20075;-84
2024/01/02 09:33:23;;;;;;;21.05;11.93;;;10.00;99.90;;;;;;5113713;27;20050;-84
2024/01/02 09:35:49;;;;;;;18.65;12.60;;;10.10;99.90;;;;;;5121260;27;20051;-84
2024/01/02 09:38:15;;;;;;;17.25;13.43;;;10.10;99.90;;;;;;5117176;27;20031;-84
2024/01/02 09:41:15;;;;;;;18.25;13.10;;;10.20;99.90;;;;;;5113632;27;20047;-84
2024/01/02 09:44:13;;;;;;;13.25;12.10;;;10.20;99.90;;;;;;5125076;27;20126;-84
2024/01/02 09:46:41;;;;;;;20.90;13.02;;;10.30;99.90;;;;;;5120410;27;20047;-84
2024/01/02 09:49:35;;;;;;;19.83;13.05;;;10.30;99.90;;;;;;5116632;27;20060;-84
2024/01/02 09:52:13;;;;;;;23.67;12.35;;;10.30;99.90;;;;;;5108315;27;20035;-84
2024/01/02 09:55:12;;;;;;;23.52;12.65;;;10.40;99.90;;;;;;5106797;27;20034;-84
2024/01/02 09:57:55;;;;;;;24.77;12.95;;;10.30;99.90;;;;;;5140934;27;20045;-84
2024/01/02 10:00:47;;;;;;;16.27;12.85;;;10.40;99.90;;;;;;5133618;27;20382;-85
2024/01/02 10:03:34;;;;;;;19.05;12.82;;;10.40;99.90;;;;;;5141269;27;20039;-83
2024/01/02 10:06:20;;;;;;;14.93;11.63;;;10.40;99.90;;;;;;5109791;27;20039;-84
2024/01/02 10:09:09;;;;;;;21.15;13.43;;;10.50;99.90;;;;;;5112490;27;20045;-85
2024/01/02 10:11:53;;;;;;;20.38;11.00;;;10.50;99.90;;;;;;5108067;27;20117;-83
2024/01/02 10:14:35;;;;;;;17.88;11.05;;;10.50;99.90;;;;;;5112982;27;20089;-84
2024/01/02 10:17:13;;;;;;;18.63;11.80;;;10.50;99.90;;;;;;5102028;27;20031;-82
2024/01/02 10:19:41;;;;;;;22.33;12.05;;;10.50;99.90;;;;;;5098393;27;20300;-83
2024/01/02 10:22:31;;;;;;;20.23;12.13;;;10.50;99.90;;;;;;5125134;27;20066;-83
2024/01/02 10:25:04;;;;;;;20.30;11.00;;;10.50;99.90;;;;;;5122800;27;20086;-83
2024/01/02 10:27:46;;;;;;;21.27;10.38;;;10.50;99.90;;;;;;5115042;27;20052;-84
2024/01/02 10:30:17;;;;;;;20.50;10.93;;;10.60;99.90;;;;;;5151375;27;20043;-84
2024/01/02 10:32:50;;;;;;;23.08;11.70;;;10.60;99.90;;;;;;5128551;27;20041;-84
2024/01/02 10:35:35;;;;;;;22.17;11.20;;;10.70;99.90;;;;;;5122965;27;20077;-83
2024/01/02 10:38:12;;;;;;;17.58;11.48;;;10.70;99.90;;;;;;5132199;27;20030;-83
2024/01/02 10:40:42;;;;;;;18.95;11.13;;;10.70;99.90;;;;;;5109045;27;20041;-83
2024/01/02 10:43:17;;;;;;;23.98;12.48;;;10.70;99.90;;;;;;5112230;27;20034;-83
2024/01/02 10:45:52;;;;;;;21.25;11.15;;;10.60;99.90;;;;;;5126942;27;20066;-83
2024/01/02 10:48:47;;;;;;;19.27;11.18;;;10.60;99.90;;;;;;5100791;27;20045;-83
2024/01/02 10:51:23;;;;;;;23.95;12.05;;;10.60;99.90;;;;;;5106972;27;20443;-83
2024/01/02 10:53:55;;;;;;;19.85;11.65;;;10.60;99.90;;;;;;5101585;27;20038;-83
2024/01/02 10:56:38;;;;;;;17.92;11.10;;;10.70;99.90;;;;;;5129317;27;20038;-84
2024/01/02 10:59:28;;;;;;;16.93;10.77;;;10.70;99.90;;;;;;5131758;27;20038;-83
2024/01/02 11:02:03;;;;;;;24.05;12.45;;;10.80;99.90;;;;;;5114317;27;20046;-83
2024/01/02 11:04:32;;;;;;;21.90;12.07;;;10.80;99.90;;;;;;5149073;27;20042;-84
2024/01/02 11:07:06;;;;;;;19.27;11.38;;;10.90;99.90;;;;;;5127998;27;20053;-84
2024/01/02 11:09:34;;;;;;;19.65;12.70;;;10.80;99.90;;;;;;5110939;27;20085;-84
2024/01/02 11:12:05;;;;;;;15.85;11.45;;;10.80;99.90;;;;;;5132583;27;20045;-83
2024/01/02 11:14:32;;;;;;;22.85;11.93;;;10.90;99.90;;;;;;5120054;27;20057;-84
2024/01/02 11:16:58;;;;;;;18.35;12.32;;;10.90;99.90;;;;;;5105958;27;20035;-84
2024/01/02 11:19:39;;;;;;;16.88;11.18;;;10.90;99.90;;;;;;5144478;27;20146;-83
2024/01/02 11:22:15;;;;;;;20.30;11.70;;;10.90;99.90;;;;;;5120861;27;20122;-83
2024/01/02 11:24:48;;;;;;;17.92;11.45;;;10.90;99.90;;;;;;5113385;27;20498;-83
2024/01/02 11:27:17;;;;;;;20.90;11.50;;;11.00;99.90;;;;;;5102625;27;20400;-83
2024/01/02 11:29:44;;;;;;;21.58;12.50;;;11.00;99.90;;;;;;5126582;27;20042;-83
2024/01/02 11:32:16;;;;;;;22.90;12.60;;;11.00;99.90;;;;;;5124376;27;20042;-83
2024/01/02 11:35:00;;;;;;;22.75;12.80;;;11.00;99.90;;;;;;5113665;27;20185;-83
2024/01/02 11:37:40;;;;;;;25.17;14.32;;;11.10;99.90;;;;;;5109225;27;20039;-83
2024/01/02 11:40:17;;;;;;;29.17;15.60;;;11.10;99.90;;;;;;5124432;27;20402;-83
2024/01/02 11:43:02;;;;;;;36.33;17.75;;;11.10;99.90;;;;;;5135015;27;20479;-83
2024/01/02 11:45:38;;;;;;;38.00;18.48;;;11.10;99.90;;;;;;5102239;27;20097;-83
2024/01/02 11:48:23;;;;;;;36.03;20.60;;;11.00;99.90;;;;;;5142126;27;20042;-83
2024/01/02 11:50:57;;;;;;;38.47;19.98;;;11.00;99.90;;;;;;5095229;27;20075;-83
2024/01/02 11:53:36;;;;;;;38.10;22.98;;;11.00;99.90;;;;;;5130187;27;20091;-83
2024/01/02 11:56:06;;;;;;;40.05;21.45;;;11.00;99.90;;;;;;5142671;27;20038;-83
2024/01/02 11:58:50;;;;;;;44.65;22.13;;;11.00;99.90;;;;;;5096922;27;20035;-83
2024/01/02 12:01:30;;;;;;;39.08;20.45;;;11.00;99.90;;;;;;5135545;27;20131;-83
2024/01/02 12:04:10;;;;;;;39.95;18.75;;;11.00;99.90;;;;;;5110696;27;20125;-83
2024/01/02 12:07:06;;;;;;;35.88;17.92;;;10.90;99.90;;;;;;5128505;27;20100;-83
2024/01/02 12:09:37;;;;;;;38.72;16.88;;;10.90;99.90;;;;;;5126083;27;20035;-83
2024/01/02 12:12:23;;;;;;;37.78;18.33;;;10.90;99.90;;;;;;5109415;27;20684;-83
2024/01/02 12:15:10;;;;;;;40.78;19.38;;;10.90;99.90;;;;;;5102817;27;20137;-83
2024/01/02 12:17:46;;;;;;;36.83;18.98;;;10.90;99.90;;;;;;5129097;27;20040;-84
2024/01/02 12:20:17;;;;;;;29.80;16.20;;;10.90;99.90;;;;;;5130765;27;20038;-83
2024/01/02 12:22:43;;;;;;;28.92;14.93;;;10.90;99.90;;;;;;5095378;27;20050;-83
2024/01/02 12:25:11;;;;;;;30.13;13.95;;;10.90;99.90;;;;;;5140308;27;20096;-83
2024/01/02 12:27:38;;;;;;;26.05;13.70;;;10.90;99.90;;;;;;5126292;27;20035;-83
2024/01/02 12:30:08;;;;;;;25.88;12.95;;;10.90;99.90;;;;;;5101051;27;20130;-83
2024/01/02 12:32:46;;;;;;;28.77;13.77;;;10.80;99.90;;;;;;5120917;27;20500;-83
2024/01/02 12:35:44;;;;;;;27.67;13.95;;;10.90;99.90;;;;;;5129365;27;20049;-83
2024/01/02 12:38:23;;;;;;;29.23;13.82;;;10.80;99.90;;;;;;5075099;27;20056;-83
2024/01/02 12:40:51;;;;;;;30.88;13.82;;;10.90;99.90;;;;;;5121079;27;20046;-83